createdAt,value
2022-10-28T00:01:15.024Z,3.53
2022-10-28T00:03:47.561Z,3.53
2022-10-28T00:06:17.476Z,3.40
2022-10-28T00:08:44.024Z,4.47
2022-10-28T00:11:14.982Z,3.80
2022-10-28T00:13:43.230Z,3.43
2022-10-28T00:16:16.104Z,3.90
2022-10-28T00:18:42.994Z,4.13
2022-10-28T00:21:18.448Z,3.57
2022-10-28T00:23:45.559Z,4.57
2022-10-28T00:26:14.747Z,3.43
2022-10-28T00:29:03.281Z,4.10
2022-10-28T00:31:31.274Z,3.57
2022-10-28T00:34:04.285Z,4.07
2022-10-28T00:36:36.210Z,3.80
2022-10-28T00:39:04.306Z,4.17
2022-10-28T00:41:33.695Z,3.87
2022-10-28T00:44:20.461Z,3.90
2022-10-28T00:46:49.850Z,3.23
2022-10-28T00:49:27.324Z,3.60
2022-10-28T00:51:58.666Z,3.53
2022-10-28T00:54:25.334Z,3.70
2022-10-28T00:56:53.672Z,3.40
2022-10-28T00:59:26.359Z,3.70
2022-10-28T01:01:53.132Z,3.50
2022-10-28T01:04:21.059Z,3.73
2022-10-28T01:06:48.391Z,3.40
2022-10-28T01:09:15.136Z,3.53
2022-10-28T01:12:05.752Z,3.83
2022-10-28T01:14:47.564Z,3.73
2022-10-28T01:17:36.107Z,3.73
2022-10-28T01:20:27.538Z,3.57
2022-10-28T01:23:05.370Z,4.10
2022-10-28T01:25:53.278Z,4.00
2022-10-28T01:28:38.000Z,3.70
2022-10-28T01:31:29.067Z,3.07
2022-10-28T01:34:09.951Z,3.40
2022-10-28T01:36:50.519Z,3.57
2022-10-28T01:39:37.884Z,3.80
2022-10-28T01:42:32.364Z,3.70
2022-10-28T01:45:19.866Z,3.70
2022-10-28T01:47:55.957Z,3.67
2022-10-28T01:50:31.756Z,3.57
2022-10-28T01:53:01.303Z,3.67
2022-10-28T01:55:31.531Z,3.50
2022-10-28T01:57:59.381Z,3.23
2022-10-28T02:00:26.621Z,3.30
2022-10-28T02:02:54.070Z,3.97
2022-10-28T02:05:45.630Z,3.40
2022-10-28T02:08:18.290Z,4.07
2022-10-28T02:11:01.451Z,3.93
2022-10-28T02:13:44.575Z,3.80
2022-10-28T02:16:32.120Z,4.10
2022-10-28T02:19:17.402Z,3.90
2022-10-28T02:21:53.028Z,3.17
2022-10-28T02:24:53.126Z,3.00
2022-10-28T02:27:25.379Z,3.97
2022-10-28T02:30:15.923Z,3.77
2022-10-28T02:32:45.738Z,2.90
2022-10-28T02:35:17.266Z,3.33
2022-10-28T02:37:45.790Z,3.70
2022-10-28T02:40:20.371Z,4.10
2022-10-28T02:42:53.748Z,3.47
2022-10-28T02:45:41.201Z,3.73
2022-10-28T02:48:12.008Z,3.80
2022-10-28T02:50:42.760Z,3.73
2022-10-28T02:53:17.026Z,3.43
2022-10-28T02:55:44.742Z,3.47
2022-10-28T02:58:11.512Z,4.23
2022-10-28T03:00:38.020Z,3.73
2022-10-28T03:03:04.598Z,3.10
2022-10-28T03:05:31.176Z,3.30
2022-10-28T03:07:57.921Z,3.20
2022-10-28T03:10:24.463Z,3.60
2022-10-28T03:12:50.895Z,3.80
2022-10-28T03:15:17.595Z,4.07
2022-10-28T03:17:44.103Z,4.00
2022-10-28T03:20:11.356Z,3.83
2022-10-28T03:22:37.955Z,3.90
2022-10-28T03:25:04.953Z,4.23
2022-10-28T03:27:31.560Z,3.80
2022-10-28T03:29:57.986Z,3.43
2022-10-28T03:32:24.844Z,3.33
2022-10-28T03:34:51.315Z,3.53
2022-10-28T03:37:17.999Z,3.67
2022-10-28T03:39:44.653Z,3.50
2022-10-28T03:42:11.089Z,3.37
2022-10-28T03:44:37.623Z,3.00
2022-10-28T03:47:04.588Z,3.87
2022-10-28T03:49:31.197Z,3.20
2022-10-28T03:51:57.676Z,3.30
2022-10-28T03:54:24.299Z,3.60
2022-10-28T03:56:50.731Z,3.00
2022-10-28T03:59:19.359Z,3.97
2022-10-28T04:01:47.080Z,3.87
2022-10-28T04:04:13.611Z,3.93
2022-10-28T04:06:40.124Z,3.23
2022-10-28T04:09:06.591Z,3.57
2022-10-28T04:11:33.170Z,3.03
2022-10-28T04:13:59.783Z,4.07
2022-10-28T04:16:26.377Z,3.77
2022-10-28T04:18:52.883Z,3.87
2022-10-28T04:21:19.384Z,3.57
2022-10-28T04:23:46.135Z,3.80
2022-10-28T04:26:12.699Z,3.73
2022-10-28T04:28:39.200Z,3.70
2022-10-28T04:31:05.796Z,3.70
2022-10-28T04:33:32.439Z,3.40
2022-10-28T04:35:59.125Z,3.50
2022-10-28T04:40:57.053Z,3.63
2022-10-28T04:43:23.561Z,3.40
2022-10-28T04:45:50.161Z,3.50
2022-10-28T04:48:16.763Z,3.40
2022-10-28T04:50:43.616Z,3.63
2022-10-28T04:53:10.579Z,3.60
2022-10-28T04:55:37.215Z,4.93
2022-10-28T04:58:03.857Z,4.17
2022-10-28T05:00:30.572Z,4.03
2022-10-28T05:02:57.743Z,4.10
2022-10-28T05:05:24.489Z,3.53
2022-10-28T05:07:51.176Z,3.53
2022-10-28T05:10:18.292Z,4.17
2022-10-28T05:12:45.695Z,3.23
2022-10-28T05:15:13.765Z,3.43
2022-10-28T05:17:44.240Z,3.57
2022-10-28T05:20:11.898Z,4.20
2022-10-28T05:22:38.496Z,4.13
2022-10-28T05:25:05.462Z,3.77
2022-10-28T05:27:32.076Z,4.57
2022-10-28T05:29:58.609Z,3.87
2022-10-28T05:32:25.162Z,3.63
2022-10-28T05:34:51.735Z,3.90
2022-10-28T05:37:18.182Z,4.37
2022-10-28T05:39:44.836Z,3.87
2022-10-28T05:42:11.540Z,4.40
2022-10-28T05:44:38.042Z,4.53
2022-10-28T05:47:04.972Z,4.23
2022-10-28T05:49:31.651Z,4.00
2022-10-28T05:51:58.123Z,4.38
2022-10-28T05:54:24.703Z,4.20
2022-10-28T05:56:51.166Z,3.70
2022-10-28T05:59:17.578Z,4.07
2022-10-28T06:01:44.244Z,4.47
2022-10-28T06:04:10.864Z,4.43
2022-10-28T06:06:37.489Z,4.60
2022-10-28T06:09:04.118Z,3.60
2022-10-28T06:11:29.106Z,4.30
2022-10-28T06:13:55.585Z,4.53
2022-10-28T06:16:22.069Z,4.43
2022-10-28T06:18:48.600Z,3.90
2022-10-28T06:21:15.074Z,4.00
2022-10-28T06:23:41.745Z,3.77
2022-10-28T06:26:08.267Z,5.00
2022-10-28T06:28:34.727Z,3.90
2022-10-28T06:31:05.929Z,4.17
2022-10-28T06:33:32.616Z,4.53
2022-10-28T06:35:59.722Z,4.60
2022-10-28T06:38:30.165Z,4.40
2022-10-28T06:40:58.009Z,16.33
2022-10-28T06:43:24.574Z,4.43
2022-10-28T06:45:55.730Z,4.43
2022-10-28T06:48:24.279Z,4.13
2022-10-28T06:50:50.962Z,3.83
2022-10-28T06:53:17.480Z,4.70
2022-10-28T06:55:48.726Z,5.00
2022-10-28T06:58:15.515Z,4.00
2022-10-28T07:00:42.069Z,4.07
2022-10-28T07:03:09.706Z,4.33
2022-10-28T07:05:36.382Z,4.30
2022-10-28T07:08:03.012Z,4.00
2022-10-28T07:10:29.568Z,3.70
2022-10-28T07:12:56.592Z,4.27
2022-10-28T07:15:23.471Z,4.17
2022-10-28T07:17:54.506Z,4.90
2022-10-28T07:20:21.530Z,4.57
2022-10-28T07:22:48.076Z,4.00
2022-10-28T07:25:14.646Z,4.60
2022-10-28T07:27:41.110Z,3.80
2022-10-28T07:30:08.373Z,4.23
2022-10-28T07:32:34.866Z,4.27
2022-10-28T07:35:01.734Z,3.67
2022-10-28T07:37:28.233Z,4.13
2022-10-28T07:39:54.743Z,4.27
2022-10-28T07:42:21.229Z,4.30
2022-10-28T07:44:47.722Z,3.77
2022-10-28T07:47:14.241Z,4.40
2022-10-28T07:49:40.787Z,4.03
2022-10-28T07:52:07.326Z,4.23
2022-10-28T07:54:33.803Z,3.93
2022-10-28T07:57:00.339Z,4.57
2022-10-28T07:59:27.115Z,5.20
2022-10-28T08:01:54.385Z,4.43
2022-10-28T08:04:20.909Z,4.47
2022-10-28T08:06:47.468Z,3.53
2022-10-28T08:09:14.053Z,3.87
2022-10-28T08:11:40.607Z,4.00
2022-10-28T08:14:07.060Z,4.77
2022-10-28T08:16:33.664Z,4.27
2022-10-28T08:19:03.997Z,4.40
2022-10-28T08:21:33.358Z,4.20
2022-10-28T08:23:59.804Z,4.17
2022-10-28T08:26:26.380Z,4.10
2022-10-28T08:28:52.907Z,4.80
2022-10-28T08:31:19.382Z,4.17
2022-10-28T08:33:46.202Z,4.63
2022-10-28T08:36:15.184Z,4.03
2022-10-28T08:38:46.098Z,4.10
2022-10-28T08:41:29.000Z,4.13
2022-10-28T08:44:27.769Z,4.27
2022-10-28T08:47:00.083Z,4.13
2022-10-28T08:49:27.272Z,4.30
2022-10-28T08:51:53.735Z,4.20
2022-10-28T08:54:26.521Z,3.87
2022-10-28T08:56:54.975Z,7.50
2022-10-28T08:59:24.367Z,4.10
2022-10-28T09:01:56.901Z,4.53
2022-10-28T09:04:40.097Z,4.40
2022-10-28T09:07:15.926Z,4.37
2022-10-28T09:09:42.471Z,4.40
2022-10-28T09:12:31.032Z,4.17
2022-10-28T09:15:32.922Z,4.30
2022-10-28T09:18:11.555Z,3.97
2022-10-28T09:20:54.449Z,4.40
2022-10-28T09:23:32.550Z,4.30
2022-10-28T09:26:24.688Z,4.53
2022-10-28T09:28:56.260Z,4.73
2022-10-28T09:31:31.782Z,4.93
2022-10-28T09:34:25.418Z,5.00
2022-10-28T09:36:56.165Z,4.60
2022-10-28T09:39:28.028Z,4.03
2022-10-28T09:41:57.542Z,3.87
2022-10-28T09:44:35.054Z,4.37
2022-10-28T09:47:02.427Z,4.23
2022-10-28T09:49:31.732Z,6.30
2022-10-28T09:52:07.417Z,4.33
2022-10-28T09:54:45.774Z,3.93
2022-10-28T09:57:14.940Z,3.70
2022-10-28T09:59:43.966Z,3.90
2022-10-28T10:02:36.865Z,4.23
2022-10-28T10:05:03.748Z,4.13
2022-10-28T10:07:40.010Z,4.83
2022-10-28T10:10:16.091Z,4.10
2022-10-28T10:12:42.747Z,4.37
2022-10-28T10:15:14.916Z,4.00
2022-10-28T10:17:45.852Z,4.00
2022-10-28T10:20:13.460Z,4.03
2022-10-28T10:22:41.835Z,4.00
2022-10-28T10:25:20.596Z,3.90
2022-10-28T10:28:02.072Z,4.10
2022-10-28T10:30:32.451Z,3.50
2022-10-28T10:32:59.285Z,3.90
2022-10-28T10:35:31.721Z,4.30
2022-10-28T10:38:00.236Z,4.23
2022-10-28T10:40:26.812Z,4.20
2022-10-28T10:43:09.997Z,4.10
2022-10-28T10:45:39.914Z,4.53
2022-10-28T10:48:12.471Z,4.10
2022-10-28T10:50:39.365Z,4.27
2022-10-28T10:53:06.231Z,3.63
2022-10-28T10:55:39.281Z,4.37
2022-10-28T10:58:07.054Z,3.97
2022-10-28T11:00:37.517Z,3.67
2022-10-28T11:03:06.877Z,4.03
2022-10-28T11:05:38.100Z,3.87
2022-10-28T11:08:06.753Z,3.83
2022-10-28T11:10:35.419Z,4.63
2022-10-28T11:13:08.809Z,4.17
2022-10-28T11:15:35.473Z,4.37
2022-10-28T11:18:17.231Z,4.43
2022-10-28T11:20:49.963Z,3.97
2022-10-28T11:23:41.584Z,3.97
2022-10-28T11:26:11.462Z,3.90
2022-10-28T11:28:57.119Z,4.17
2022-10-28T11:31:47.873Z,4.87
2022-10-28T11:34:24.605Z,4.10
2022-10-28T11:37:25.259Z,4.00
2022-10-28T11:39:51.792Z,3.97
2022-10-28T11:42:27.750Z,4.50
2022-10-28T11:45:05.848Z,4.47
2022-10-28T11:47:52.209Z,4.27
2022-10-28T11:50:21.981Z,5.57
2022-10-28T11:53:12.547Z,4.83
2022-10-28T11:56:27.551Z,4.07
2022-10-28T11:58:59.915Z,3.97
2022-10-28T12:01:41.755Z,3.77
2022-10-28T12:04:14.596Z,4.10
2022-10-28T12:07:18.433Z,4.07
2022-10-28T12:10:16.274Z,3.90
2022-10-28T12:12:52.163Z,4.10
2022-10-28T12:15:39.961Z,4.67
2022-10-28T12:18:23.585Z,4.20
2022-10-28T12:20:56.447Z,4.80
2022-10-28T12:23:23.920Z,3.73
2022-10-28T12:25:54.883Z,4.13
2022-10-28T12:28:34.331Z,4.00
2022-10-28T12:31:01.876Z,5.63
2022-10-28T12:33:34.518Z,5.23
2022-10-28T12:36:04.090Z,4.80
2022-10-28T12:38:36.344Z,4.27
2022-10-28T12:41:08.180Z,3.70
2022-10-28T12:43:39.324Z,3.63
2022-10-28T12:46:29.261Z,3.93
2022-10-28T12:48:59.036Z,4.40
2022-10-28T12:51:36.950Z,4.47
2022-10-28T12:54:08.410Z,4.23
2022-10-28T12:56:38.071Z,3.80
2022-10-28T12:59:11.266Z,4.73
2022-10-28T13:01:38.014Z,3.77
2022-10-28T13:04:05.041Z,4.10
2022-10-28T13:06:42.337Z,3.90
2022-10-28T13:09:28.155Z,4.17
2022-10-28T13:12:06.970Z,4.37
2022-10-28T13:14:57.982Z,4.27
2022-10-28T13:17:58.415Z,4.23
2022-10-28T13:20:43.329Z,4.03
2022-10-28T13:23:28.962Z,4.07
2022-10-28T13:26:01.302Z,4.27
2022-10-28T13:28:34.120Z,4.10
2022-10-28T13:31:03.076Z,3.40
2022-10-28T13:33:30.487Z,4.47
2022-10-28T13:36:25.061Z,3.83
2022-10-28T13:38:59.760Z,4.30
2022-10-28T13:41:38.109Z,4.43
2022-10-28T13:44:10.677Z,4.13
2022-10-28T13:46:59.660Z,4.30
2022-10-28T13:49:34.116Z,4.17
2022-10-28T13:52:03.886Z,4.03
2022-10-28T13:54:43.811Z,4.33
2022-10-28T13:57:13.498Z,3.77
2022-10-28T14:02:56.655Z,4.30
2022-10-28T14:05:46.800Z,4.43
2022-10-28T14:08:25.689Z,4.27
2022-10-28T14:11:09.462Z,4.40
2022-10-28T14:13:39.738Z,4.70
2022-10-28T14:16:26.049Z,4.13
2022-10-28T14:18:57.587Z,3.77
2022-10-28T14:21:24.255Z,4.47
2022-10-28T14:24:07.876Z,4.20
2022-10-28T14:27:09.964Z,5.03
2022-10-28T14:29:55.101Z,4.07
2022-10-28T14:32:30.678Z,4.33
2022-10-28T14:34:59.901Z,4.37
2022-10-28T14:37:45.195Z,4.03
2022-10-28T14:40:20.053Z,4.03
2022-10-28T14:42:52.869Z,4.27
2022-10-28T14:45:19.309Z,4.33
2022-10-28T14:48:07.788Z,4.13
2022-10-28T14:50:38.778Z,4.60
2022-10-28T14:53:33.478Z,5.10
2022-10-28T14:56:03.753Z,4.23
2022-10-28T14:58:50.802Z,4.10
2022-10-28T15:01:17.464Z,3.87
2022-10-28T15:03:53.375Z,4.10
2022-10-28T15:06:43.575Z,5.47
2022-10-28T15:09:29.376Z,4.57
2022-10-28T15:11:59.812Z,4.27
2022-10-28T15:14:31.523Z,4.57
2022-10-28T15:17:00.093Z,4.20
2022-10-28T15:19:29.091Z,4.70
2022-10-28T15:22:03.446Z,4.57
2022-10-28T15:24:29.987Z,4.77
2022-10-28T15:26:56.916Z,5.03
2022-10-28T15:29:24.137Z,4.30
2022-10-28T15:32:07.950Z,4.70
2022-10-28T15:34:34.475Z,3.97
2022-10-28T15:37:01.243Z,4.40
2022-10-28T15:39:28.145Z,5.33
2022-10-28T15:41:55.430Z,4.83
2022-10-28T15:44:29.948Z,4.37
2022-10-28T15:46:57.083Z,5.17
2022-10-28T15:49:40.876Z,5.70
2022-10-28T15:52:16.577Z,5.13
2022-10-28T15:54:53.510Z,4.80
2022-10-28T15:57:47.047Z,4.83
2022-10-28T16:00:23.225Z,5.37
2022-10-28T16:03:05.338Z,4.93
2022-10-28T16:05:32.010Z,5.37
2022-10-28T16:08:29.227Z,5.47
2022-10-28T16:11:08.971Z,4.90
2022-10-28T16:13:38.320Z,4.77
2022-10-28T16:16:05.021Z,5.07
2022-10-28T16:18:33.146Z,4.83
2022-10-28T16:21:00.316Z,4.70
2022-10-28T16:23:33.813Z,4.57
2022-10-28T16:26:00.471Z,4.73
2022-10-28T16:28:27.814Z,5.63
2022-10-28T16:30:56.747Z,4.57
2022-10-28T16:33:34.257Z,4.43
2022-10-28T16:36:02.634Z,4.80
2022-10-28T16:38:30.835Z,4.40
2022-10-28T16:40:58.598Z,4.63
2022-10-28T16:43:26.736Z,4.47
2022-10-28T16:45:56.821Z,4.50
2022-10-28T16:48:25.263Z,4.80
2022-10-28T16:50:57.641Z,10.40
2022-10-28T16:53:24.507Z,5.87
2022-10-28T16:55:51.424Z,4.73
2022-10-28T16:58:20.656Z,4.37
2022-10-28T17:00:49.934Z,4.63
2022-10-28T17:03:16.563Z,4.40
2022-10-28T17:05:44.062Z,5.37
2022-10-28T17:08:11.731Z,4.73
2022-10-28T17:10:42.541Z,4.57
2022-10-28T17:13:13.534Z,4.47
2022-10-28T17:15:40.909Z,4.27
2022-10-28T17:18:09.213Z,4.07
2022-10-28T17:20:35.859Z,5.10
2022-10-28T17:23:03.998Z,4.73
2022-10-28T17:25:30.633Z,5.07
2022-10-28T17:27:57.861Z,4.93
2022-10-28T17:30:25.007Z,4.80
2022-10-28T17:32:53.810Z,3.97
2022-10-28T17:35:21.932Z,4.40
2022-10-28T17:37:48.839Z,5.20
2022-10-28T17:40:15.675Z,5.03
2022-10-28T17:42:42.328Z,5.10
2022-10-28T17:45:10.236Z,4.83
2022-10-28T17:47:36.816Z,5.63
2022-10-28T17:50:03.792Z,5.30
2022-10-28T17:52:34.219Z,5.37
2022-10-28T17:55:05.488Z,5.27
2022-10-28T17:57:32.195Z,5.47
2022-10-28T17:59:58.729Z,4.73
2022-10-28T18:02:25.619Z,5.67
2022-10-28T18:04:52.289Z,4.50
2022-10-28T18:07:18.854Z,55.27
2022-10-28T18:09:45.566Z,61.07
2022-10-28T18:12:12.660Z,20.50
2022-10-28T18:14:39.463Z,9.40
2022-10-28T18:17:06.338Z,7.90
2022-10-28T18:19:32.860Z,7.97
2022-10-28T18:21:59.506Z,11.93
2022-10-28T18:24:26.384Z,10.13
2022-10-28T18:26:54.258Z,7.83
2022-10-28T18:29:20.837Z,6.93
2022-10-28T18:31:47.483Z,7.30
2022-10-28T18:34:14.186Z,7.30
2022-10-28T18:36:41.064Z,7.47
2022-10-28T18:39:08.229Z,7.50
2022-10-28T18:41:38.308Z,8.20
2022-10-28T18:44:05.458Z,10.23
2022-10-28T18:46:35.717Z,11.33
2022-10-28T18:49:02.760Z,9.23
2022-10-28T18:51:29.593Z,7.97
2022-10-28T18:53:56.904Z,7.00
2022-10-28T18:56:25.853Z,7.80
2022-10-28T18:58:52.661Z,6.60
2022-10-28T19:01:24.788Z,7.90
2022-10-28T19:03:52.952Z,7.90
2022-10-28T19:06:20.248Z,7.53
2022-10-28T19:08:51.555Z,6.93
2022-10-28T19:11:18.526Z,5.90
2022-10-28T19:13:45.216Z,6.10
2022-10-28T19:18:39.637Z,13.47
2022-10-28T19:21:15.032Z,6.80
2022-10-28T19:23:42.722Z,4.90
2022-10-28T19:26:10.792Z,6.53
2022-10-28T19:28:44.954Z,5.50
2022-10-28T19:31:16.970Z,4.77
2022-10-28T19:33:45.446Z,6.07
2022-10-28T19:36:14.961Z,5.70
2022-10-28T19:38:41.630Z,5.20
2022-10-28T19:41:10.902Z,5.57
2022-10-28T19:43:37.533Z,5.90
2022-10-28T19:46:12.984Z,5.87
2022-10-28T19:48:45.140Z,5.37
2022-10-28T19:51:14.249Z,5.80
2022-10-28T19:53:41.088Z,4.90
2022-10-28T19:56:07.801Z,5.80
2022-10-28T19:58:35.102Z,6.10
2022-10-28T20:01:04.538Z,5.33
2022-10-28T20:03:34.549Z,5.83
2022-10-28T20:06:13.720Z,5.80
2022-10-28T20:08:44.808Z,5.27
2022-10-28T20:11:13.447Z,5.20
2022-10-28T20:13:40.162Z,5.50
2022-10-28T20:16:10.340Z,6.17
2022-10-28T20:18:36.964Z,5.53
2022-10-28T20:21:23.060Z,5.80
2022-10-28T20:23:53.647Z,5.20
2022-10-28T20:26:22.193Z,5.70
2022-10-28T20:28:49.584Z,5.77
2022-10-28T20:31:18.300Z,4.93
2022-10-28T20:33:50.747Z,6.13
2022-10-28T20:36:31.960Z,5.43
2022-10-28T20:39:02.997Z,5.67
2022-10-28T20:41:31.994Z,5.97
2022-10-28T20:43:59.085Z,5.80
2022-10-28T20:46:26.397Z,6.20
2022-10-28T20:48:56.817Z,5.90
2022-10-28T20:51:25.382Z,6.20
2022-10-28T20:53:52.193Z,6.37
2022-10-28T20:56:26.951Z,6.07
2022-10-28T20:58:54.428Z,5.70
2022-10-28T21:01:21.118Z,5.63
2022-10-28T21:03:48.219Z,6.10
2022-10-28T21:06:16.943Z,5.63
2022-10-28T21:08:43.866Z,5.57
2022-10-28T21:11:13.308Z,5.33
2022-10-28T21:13:40.352Z,5.70
2022-10-28T21:16:09.148Z,5.60
2022-10-28T21:18:37.183Z,6.20
2022-10-28T21:21:04.436Z,6.00
2022-10-28T21:23:31.424Z,5.90
2022-10-28T21:26:03.182Z,5.27
2022-10-28T21:28:30.723Z,5.83
2022-10-28T21:31:04.305Z,6.03
2022-10-28T21:33:30.853Z,6.60
2022-10-28T21:35:59.258Z,5.30
2022-10-28T21:38:27.046Z,6.07
2022-10-28T21:41:00.781Z,6.30
2022-10-28T21:43:28.668Z,6.67
2022-10-28T21:45:55.308Z,6.10
2022-10-28T21:48:22.361Z,6.07
2022-10-28T21:50:53.229Z,5.97
2022-10-28T21:53:20.410Z,6.10
2022-10-28T21:55:49.128Z,6.60
2022-10-28T21:58:17.187Z,6.33
2022-10-28T22:00:44.154Z,5.60
2022-10-28T22:03:12.228Z,6.53
2022-10-28T22:05:39.053Z,6.20
2022-10-28T22:08:05.716Z,6.27
2022-10-28T22:10:32.418Z,5.73
2022-10-28T22:12:59.075Z,6.07
2022-10-28T22:15:25.557Z,6.17
2022-10-28T22:17:52.018Z,7.87
2022-10-28T22:20:18.632Z,6.63
2022-10-28T22:22:45.236Z,6.80
2022-10-28T22:25:11.732Z,5.57
2022-10-28T22:27:38.506Z,5.80
2022-10-28T22:30:05.637Z,6.23
2022-10-28T22:32:32.264Z,5.53
2022-10-28T22:34:58.798Z,5.57
2022-10-28T22:37:25.442Z,5.83
2022-10-28T22:39:51.897Z,6.13
2022-10-28T22:42:18.372Z,6.20
2022-10-28T22:44:45.040Z,5.77
2022-10-28T22:47:11.530Z,5.70
2022-10-28T22:49:38.064Z,5.93
2022-10-28T22:52:04.772Z,5.97
2022-10-28T22:54:31.334Z,6.07
2022-10-28T22:56:57.942Z,5.67
2022-10-28T22:59:25.323Z,6.23
2022-10-28T23:01:52.227Z,6.23
2022-10-28T23:04:18.803Z,6.57
2022-10-28T23:06:45.242Z,5.93
2022-10-28T23:09:11.756Z,6.20
2022-10-28T23:11:38.339Z,5.77
2022-10-28T23:14:04.969Z,6.10
2022-10-28T23:16:31.632Z,6.33
2022-10-28T23:19:00.732Z,6.10
2022-10-28T23:21:27.377Z,5.53
2022-10-28T23:23:55.854Z,6.00
2022-10-28T23:26:23.080Z,5.53
2022-10-28T23:28:51.944Z,5.40
2022-10-28T23:31:18.638Z,6.47
2022-10-28T23:33:45.135Z,6.00
2022-10-28T23:36:13.220Z,6.80
2022-10-28T23:38:39.935Z,5.57
2022-10-28T23:41:09.016Z,6.10
2022-10-28T23:43:35.818Z,6.30
2022-10-28T23:46:02.291Z,5.77
2022-10-28T23:48:29.321Z,5.47
2022-10-28T23:50:56.546Z,6.10
2022-10-28T23:53:23.506Z,5.67
2022-10-28T23:55:50.780Z,5.90
2022-10-28T23:58:18.432Z,6.03
